Time;durP1;ratioP1;P1;durP2;ratioP2;P2;SDS_P1;SDS_P2;PMS_P1;PMS_P2;Temp;Humidity;BMP_temperature;BMP_pressure;BME280_temperature;BME280_humidity;BME280_pressure;Samples;Min_cycle;Max_cycle;Signal;HPM_P1;HPM_P2
2021/12/10 00:00:48;;;;;;;133.70;54.30;;;;;;;-0.52;86.53;99084.72;102862;1312;22597;-62
2021/12/10 00:03:22;;;;;;;118.20;50.60;;;;;;;-0.54;86.70;99070.42;102737;1313;22600;-61
2021/12/10 00:05:56;;;;;;;130.00;54.30;;;;;;;-0.53;86.82;99067.73;102635;1312;25292;-59
2021/12/10 00:08:28;;;;;;;127.30;52.30;;;;;;;-0.53;86.89;99067.18;102616;1312;24230;-60
2021/12/10 00:11:00;;;;;;;126.80;53.80;;;;;;;-0.52;86.81;99058.30;102830;1312;24238;-59
2021/12/10 00:13:28;;;;;;;122.60;50.10;;;;;;;-0.52;86.83;99052.83;103028;1312;24281;-60
2021/12/10 00:15:56;;;;;;;125.90;52.00;;;;;;;-0.50;86.80;99046.04;102834;1312;24444;-60
2021/12/10 00:18:32;;;;;;;119.90;50.90;;;;;;;-0.50;86.83;99040.31;102642;1312;22626;-59
2021/12/10 00:21:03;;;;;;;121.90;50.20;;;;;;;-0.47;86.85;99029.11;102597;1312;25469;-60
2021/12/10 00:23:33;;;;;;;124.90;52.70;;;;;;;-0.46;86.77;99020.08;102637;1312;22593;-60
2021/12/10 00:26:05;;;;;;;127.00;54.40;;;;;;;-0.46;86.86;99025.95;102771;1312;27292;-59
2021/12/10 00:28:38;;;;;;;136.60;58.00;;;;;;;-0.47;86.79;99030.97;102891;1319;22597;-60
2021/12/10 00:31:17;;;;;;;128.00;51.20;;;;;;;-0.46;86.80;99028.54;102848;1318;22656;-60
2021/12/10 00:33:51;;;;;;;133.10;56.00;;;;;;;-0.48;86.83;99028.42;102556;1313;25373;-60
2021/12/10 00:36:20;;;;;;;118.30;49.60;;;;;;;-0.48;86.85;99029.70;102790;1313;22583;-61
2021/12/10 00:38:51;;;;;;;117.20;47.90;;;;;;;-0.49;86.86;99028.14;102791;1312;26662;-60
2021/12/10 00:41:20;;;;;;;124.00;51.80;;;;;;;-0.48;86.97;99029.46;102821;1312;24286;-61
2021/12/10 00:43:49;;;;;;;124.20;51.60;;;;;;;-0.46;86.92;99029.25;102739;1312;22647;-61
2021/12/10 00:46:18;;;;;;;123.50;50.70;;;;;;;-0.47;86.89;99028.48;102588;1312;22817;-60
2021/12/10 00:48:47;;;;;;;128.70;51.80;;;;;;;-0.48;86.94;99021.63;102711;1312;22616;-60
2021/12/10 00:51:16;;;;;;;124.80;52.30;;;;;;;-0.50;86.79;99005.61;102637;1312;24275;-60
2021/12/10 00:53:44;;;;;;;122.70;50.50;;;;;;;-0.47;86.89;99003.50;102726;1312;26726;-61
2021/12/10 00:56:13;;;;;;;119.00;50.30;;;;;;;-0.45;86.94;98999.92;102731;1312;22672;-60
2021/12/10 00:58:41;;;;;;;125.20;50.90;;;;;;;-0.45;86.83;98997.55;102806;1313;23985;-60
2021/12/10 01:01:13;;;;;;;123.50;51.30;;;;;;;-0.44;86.90;98977.85;102748;1312;25391;-60
2021/12/10 01:03:47;;;;;;;120.80;50.40;;;;;;;-0.42;86.88;98979.84;102763;1312;22636;-60
2021/12/10 01:06:18;;;;;;;119.70;48.90;;;;;;;-0.39;86.88;98983.83;102789;1312;24287;-60
2021/12/10 01:08:49;;;;;;;117.30;48.90;;;;;;;-0.40;86.80;98983.31;102825;1312;25421;-60
2021/12/10 01:11:20;;;;;;;;;;;;;;;-0.40;86.83;98976.52;102775;1311;25556;-61
2021/12/10 01:13:51;;;;;;;117.40;47.30;;;;;;;-0.43;86.83;98975.19;102883;1317;25419;-59
2021/12/10 01:25:05;;;;;;;149.70;62.20;;;;;;;-0.48;86.96;98979.33;102764;1312;22731;-59
2021/12/10 01:27:36;;;;;;;157.20;60.50;;;;;;;-0.49;86.89;98974.71;102785;1312;22642;-60
2021/12/10 01:30:10;;;;;;;151.30;59.90;;;;;;;-0.51;86.98;98963.27;102933;1312;25626;-60
2021/12/10 01:32:47;;;;;;;142.20;58.60;;;;;;;-0.51;86.88;98963.13;102793;1312;22668;-60
2021/12/10 01:35:22;;;;;;;139.60;57.20;;;;;;;-0.50;87.01;98957.30;102833;1313;25663;-60
2021/12/10 01:37:51;;;;;;;140.20;55.70;;;;;;;-0.48;86.94;98958.09;102995;1312;25343;-60
2021/12/10 01:40:21;;;;;;;129.60;51.60;;;;;;;-0.48;86.99;98952.16;103134;1312;22769;-62
2021/12/10 01:42:53;;;;;;;124.20;49.90;;;;;;;-0.49;86.90;98947.63;103216;1312;25306;-60
2021/12/10 01:45:34;;;;;;;129.40;50.90;;;;;;;-0.51;86.96;98952.85;102842;1312;25361;-60
2021/12/10 01:48:08;;;;;;;126.00;51.20;;;;;;;-0.51;87.01;98949.64;103002;1312;24939;-60
2021/12/10 01:50:38;;;;;;;134.00;55.00;;;;;;;-0.50;87.00;98943.98;102702;1312;25558;-62
2021/12/10 01:53:09;;;;;;;129.90;52.70;;;;;;;-0.49;87.02;98944.80;103008;1312;25480;-59
2021/12/10 01:55:41;;;;;;;127.60;50.20;;;;;;;-0.51;86.97;98940.02;103020;1312;24322;-59
2021/12/10 01:58:15;;;;;;;120.40;50.00;;;;;;;-0.51;87.03;98935.16;102810;1317;22583;-59
2021/12/10 02:00:46;;;;;;;126.30;51.30;;;;;;;-0.51;87.03;98936.48;102831;1312;25428;-60
2021/12/10 02:03:15;;;;;;;123.10;51.70;;;;;;;-0.50;87.03;98944.23;102924;1312;26680;-60
2021/12/10 02:05:44;;;;;;;125.50;51.40;;;;;;;-0.48;87.01;98944.23;103001;1312;22707;-60
2021/12/10 02:08:14;;;;;;;118.80;50.90;;;;;;;-0.48;86.97;98940.46;102816;1312;22659;-60
2021/12/10 02:10:42;;;;;;;122.30;49.60;;;;;;;-0.50;86.93;98939.91;102770;1315;24266;-60
2021/12/10 02:13:11;;;;;;;118.20;51.70;;;;;;;-0.52;86.97;98939.73;102748;1312;22650;-61
2021/12/10 02:15:40;;;;;;;120.10;52.40;;;;;;;-0.53;87.04;98933.50;102748;1312;22644;-60
2021/12/10 02:18:12;;;;;;;130.80;56.80;;;;;;;-0.54;87.00;98933.44;102738;1319;22814;-61
2021/12/10 02:20:53;;;;;;;120.30;50.60;;;;;;;-0.53;87.14;98932.08;102876;1312;22607;-62
2021/12/10 02:23:22;;;;;;;126.80;53.50;;;;;;;-0.54;87.15;98915.59;102876;1312;22607;-61
2021/12/10 02:25:51;;;;;;;131.00;53.20;;;;;;;-0.53;87.04;98912.02;102742;1315;25682;-61
2021/12/10 02:28:19;;;;;;;130.30;51.50;;;;;;;-0.53;87.22;98911.09;102625;1312;22881;-62
2021/12/10 02:30:49;;;;;;;124.90;53.20;;;;;;;-0.53;87.23;98903.88;102729;1312;24128;-61
2021/12/10 02:33:18;;;;;;;127.00;52.80;;;;;;;-0.51;87.19;98895.70;102832;1315;24446;-61
2021/12/10 02:35:46;;;;;;;129.20;52.00;;;;;;;-0.51;87.19;98904.08;102848;1312;22652;-60
2021/12/10 02:38:16;;;;;;;125.20;51.60;;;;;;;-0.50;87.23;98907.95;102731;1311;22725;-61
2021/12/10 02:40:46;;;;;;;122.70;49.90;;;;;;;-0.50;87.09;98907.79;103052;1319;22621;-60
2021/12/10 02:43:17;;;;;;;123.80;51.00;;;;;;;-0.51;87.19;98908.42;102900;1312;24340;-60
2021/12/10 02:45:48;;;;;;;126.40;50.90;;;;;;;-0.52;87.01;98908.48;102780;1312;22704;-60
2021/12/10 02:48:17;;;;;;;121.80;51.10;;;;;;;-0.55;87.06;98902.69;102756;1315;22600;-61
2021/12/10 02:50:46;;;;;;;135.40;53.10;;;;;;;-0.54;87.10;98907.45;102703;1312;22761;-59
2021/12/10 02:53:17;;;;;;;119.50;50.50;;;;;;;-0.53;87.09;98914.15;102898;1317;22669;-60
2021/12/10 02:55:45;;;;;;;129.00;52.90;;;;;;;-0.56;87.03;98912.44;102872;1318;25405;-60
2021/12/10 02:58:14;;;;;;;123.40;50.90;;;;;;;-0.57;87.13;98914.96;102900;1312;23877;-60
2021/12/10 03:00:47;;;;;;;125.40;53.50;;;;;;;-0.55;87.21;98918.59;102912;1312;25435;-59
2021/12/10 03:03:15;;;;;;;127.40;53.00;;;;;;;-0.54;87.22;98912.30;102970;1312;23091;-60
2021/12/10 03:05:45;;;;;;;127.90;55.70;;;;;;;-0.54;87.08;98907.14;102964;1312;22738;-61
2021/12/10 03:08:14;;;;;;;129.70;53.40;;;;;;;-0.52;87.20;98907.08;102797;1312;22888;-60
2021/12/10 03:10:43;;;;;;;136.00;52.70;;;;;;;-0.52;87.16;98922.36;102860;1320;22604;-60
2021/12/10 03:13:12;;;;;;;124.50;53.20;;;;;;;-0.54;87.22;98921.70;102965;1312;22597;-60
2021/12/10 03:15:41;;;;;;;131.60;53.00;;;;;;;-0.53;87.32;98902.55;102973;1313;22604;-61
2021/12/10 03:18:13;;;;;;;127.30;52.50;;;;;;;-0.52;87.20;98892.51;102862;1312;25483;-60
2021/12/10 03:20:41;;;;;;;125.30;52.60;;;;;;;-0.52;87.22;98898.77;102815;1317;22595;-60
2021/12/10 03:23:11;;;;;;;119.20;50.90;;;;;;;-0.52;87.28;98905.44;102681;1318;22586;-60
2021/12/10 03:25:39;;;;;;;128.10;54.20;;;;;;;-0.55;87.25;98901.51;103637;1298;22780;-59
2021/12/10 03:28:10;;;;;;;126.20;57.50;;;;;;;-0.54;87.24;98902.67;104074;1314;25435;-58
2021/12/10 03:30:42;;;;;;;125.40;57.80;;;;;;;-0.53;87.34;98904.66;103797;1310;22599;-60
2021/12/10 03:33:11;;;;;;;130.80;51.80;;;;;;;-0.54;87.25;98902.12;103708;1309;24255;-58
2021/12/10 03:35:42;;;;;;;129.50;53.90;;;;;;;-0.56;87.29;98897.55;103784;1308;25508;-59
2021/12/10 03:38:16;;;;;;;124.00;51.80;;;;;;;-0.55;87.42;98894.61;103688;1312;22653;-58
2021/12/10 03:40:46;;;;;;;129.70;53.60;;;;;;;-0.52;87.46;98885.39;103712;1312;23363;-57
2021/12/10 03:43:15;;;;;;;136.70;53.00;;;;;;;-0.49;87.42;98876.05;103927;1316;22580;-57
2021/12/10 03:45:47;;;;;;;122.70;51.40;;;;;;;-0.45;87.34;98875.86;103716;1316;22599;-57
2021/12/10 03:48:18;;;;;;;128.50;53.50;;;;;;;-0.45;87.37;98872.55;103705;1309;22659;-57
2021/12/10 03:50:48;;;;;;;135.90;55.20;;;;;;;-0.46;87.32;98879.77;103599;1310;25399;-58
2021/12/10 03:53:18;;;;;;;130.50;54.40;;;;;;;-0.46;87.27;98887.45;103645;1314;25946;-60
2021/12/10 03:55:48;;;;;;;139.90;56.50;;;;;;;-0.46;87.31;98875.02;103686;1317;22661;-57
2021/12/10 03:58:17;;;;;;;133.30;56.10;;;;;;;-0.45;87.34;98865.02;103638;1316;24305;-60
2021/12/10 04:00:47;;;;;;;130.40;55.30;;;;;;;-0.42;87.31;98870.58;103677;1313;24282;-57
2021/12/10 04:03:18;;;;;;;124.00;52.20;;;;;;;-0.40;87.18;98866.98;103748;1310;22860;-57
2021/12/10 04:05:47;;;;;;;132.40;53.60;;;;;;;-0.38;87.15;98866.77;103725;1310;22577;-59
2021/12/10 04:08:16;;;;;;;132.60;52.70;;;;;;;-0.36;87.18;98859.19;103744;1310;24221;-59
2021/12/10 04:10:47;;;;;;;134.60;53.70;;;;;;;-0.36;87.06;98852.85;103718;1316;25394;-58
2021/12/10 04:13:16;;;;;;;127.70;51.50;;;;;;;-0.37;86.98;98848.55;103923;1314;24342;-57
2021/12/10 04:15:45;;;;;;;128.50;54.60;;;;;;;-0.38;86.81;98850.02;103638;1314;23103;-58
2021/12/10 04:18:14;;;;;;;138.30;57.90;;;;;;;-0.40;86.81;98844.20;103637;1310;22653;-57
2021/12/10 04:20:43;;;;;;;125.50;52.80;;;;;;;-0.41;86.75;98840.38;103633;1310;25277;-58
2021/12/10 04:23:13;;;;;;;138.80;55.70;;;;;;;-0.40;86.82;98840.83;103716;1310;25417;-56
2021/12/10 04:25:42;;;;;;;135.70;54.50;;;;;;;-0.36;86.82;98838.44;103656;1315;22690;-59
2021/12/10 04:28:13;;;;;;;136.30;58.30;;;;;;;-0.35;86.84;98843.23;103584;1310;25573;-58
2021/12/10 04:30:45;;;;;;;134.90;58.40;;;;;;;-0.34;86.60;98838.45;103773;1309;22990;-57
2021/12/10 04:33:16;;;;;;;135.70;58.70;;;;;;;-0.35;86.48;98836.22;103803;1313;22811;-58
2021/12/10 04:35:46;;;;;;;134.20;57.20;;;;;;;-0.34;86.68;98839.08;103536;1309;25432;-59
2021/12/10 04:38:15;;;;;;;125.40;56.30;;;;;;;-0.35;86.45;98831.17;103479;1310;203721;-63
2021/12/10 04:40:46;;;;;;;131.30;56.00;;;;;;;-0.37;86.36;98826.16;103452;1310;22652;-59
2021/12/10 04:43:16;;;;;;;126.20;53.00;;;;;;;-0.37;86.56;98829.92;103518;1316;22717;-58
2021/12/10 04:45:44;;;;;;;130.20;56.00;;;;;;;-0.37;86.39;98836.65;103582;1309;24353;-58
2021/12/10 04:48:15;;;;;;;142.10;57.40;;;;;;;-0.41;86.28;98834.27;103588;1310;22582;-58
2021/12/10 04:50:43;;;;;;;141.20;62.50;;;;;;;-0.43;86.37;98836.22;103533;1315;22617;-61
2021/12/10 04:53:12;;;;;;;144.90;61.80;;;;;;;-0.44;86.46;98841.72;103558;1314;24382;-59
2021/12/10 04:55:41;;;;;;;145.80;60.20;;;;;;;-0.46;86.67;98838.41;103697;1314;22557;-59
2021/12/10 04:58:10;;;;;;;139.90;60.20;;;;;;;-0.48;86.67;98842.32;103802;1309;22812;-59
2021/12/10 05:00:43;;;;;;;151.30;62.20;;;;;;;-0.51;86.67;98845.24;103562;1314;24233;-62
2021/12/10 05:03:12;;;;;;;151.80;62.40;;;;;;;-0.53;86.77;98842.50;103540;1316;22727;-58
2021/12/10 05:05:43;;;;;;;151.80;60.20;;;;;;;-0.56;86.79;98840.14;103613;1316;26120;-61
2021/12/10 05:08:12;;;;;;;140.40;59.00;;;;;;;-0.57;86.83;98833.45;103812;1310;24026;-57
2021/12/10 05:10:41;;;;;;;144.70;58.90;;;;;;;-0.57;87.00;98826.64;103769;1316;22692;-57
2021/12/10 05:13:10;;;;;;;144.60;60.30;;;;;;;-0.56;86.90;98825.91;103663;1310;22773;-54
2021/12/10 05:15:39;;;;;;;150.90;60.50;;;;;;;-0.56;86.78;98834.35;103606;1310;22564;-57
2021/12/10 05:18:12;;;;;;;145.10;62.40;;;;;;;-0.57;86.65;98831.96;103812;1310;22664;-57
2021/12/10 05:20:43;;;;;;;141.00;59.90;;;;;;;-0.61;86.65;98835.97;103612;1315;22859;-57
2021/12/10 05:23:11;;;;;;;151.20;62.80;;;;;;;-0.61;86.60;98832.95;103645;1309;24176;-57
2021/12/10 05:25:39;;;;;;;147.40;61.90;;;;;;;-0.64;86.77;98830.11;103575;1309;23160;-55
2021/12/10 05:28:08;;;;;;;139.50;56.60;;;;;;;-0.64;86.77;98830.84;103643;1309;22563;-58
2021/12/10 05:30:36;;;;;;;146.20;59.60;;;;;;;-0.65;86.75;98834.00;103535;1314;25715;-57
2021/12/10 05:33:05;;;;;;;140.60;60.30;;;;;;;-0.67;86.76;98834.77;103671;1309;26551;-57
2021/12/10 05:35:35;;;;;;;147.20;61.30;;;;;;;-0.68;86.73;98830.58;103621;1310;24232;-59
2021/12/10 05:38:03;;;;;;;148.20;59.00;;;;;;;-0.69;86.68;98835.71;103659;1309;24222;-57
2021/12/10 05:40:31;;;;;;;141.50;59.00;;;;;;;-0.68;86.83;98835.52;103615;1310;23029;-56
2021/12/10 05:43:00;;;;;;;139.90;58.50;;;;;;;-0.66;86.77;98833.25;103464;1315;24533;-54
2021/12/10 05:45:30;;;;;;;135.70;57.00;;;;;;;-0.66;86.71;98826.98;103638;1313;22807;-57
2021/12/10 05:47:59;;;;;;;137.80;57.20;;;;;;;-0.66;86.68;98826.77;103171;1313;22649;-57
2021/12/10 05:50:28;;;;;;;145.70;60.10;;;;;;;-0.68;86.55;98823.54;103411;1313;25360;-57
2021/12/10 05:52:57;;;;;;;138.60;59.30;;;;;;;-0.73;86.56;98821.23;103499;1314;25639;-55
2021/12/10 05:55:27;;;;;;;155.50;62.80;;;;;;;-0.74;86.65;98822.92;103437;1314;25718;-56
2021/12/10 05:57:55;;;;;;;142.70;59.30;;;;;;;-0.77;86.54;98823.55;106915;1310;22425;-57
2021/12/10 06:00:28;;;;;;;144.60;57.70;;;;;;;-0.78;86.60;98829.31;103509;1310;22626;-57
2021/12/10 06:02:58;;;;;;;160.30;63.20;;;;;;;-0.78;86.64;98828.06;103467;1309;25426;-65
2021/12/10 06:05:29;;;;;;;163.00;65.60;;;;;;;-0.83;86.65;98832.80;103506;1310;22640;-58
2021/12/10 06:07:57;;;;;;;163.70;65.40;;;;;;;-0.84;86.70;98836.60;103465;1317;22700;-58
2021/12/10 06:10:25;;;;;;;152.80;62.50;;;;;;;-0.85;86.74;98841.25;103431;1310;22639;-58
2021/12/10 06:12:53;;;;;;;151.80;62.90;;;;;;;-0.86;86.85;98843.55;103749;1315;22843;-57
2021/12/10 06:15:27;;;;;;;147.90;63.70;;;;;;;-0.89;86.74;98836.66;104473;1309;23892;-58
2021/12/10 06:17:55;;;;;;;149.00;63.20;;;;;;;-0.92;86.90;98835.57;103746;1309;25579;-53
2021/12/10 06:20:29;;;;;;;157.60;65.70;;;;;;;-0.94;86.79;98836.20;103516;1310;24351;-55
2021/12/10 06:22:59;;;;;;;158.70;65.60;;;;;;;-0.94;86.90;98830.70;103452;1315;24205;-55
2021/12/10 06:25:28;;;;;;;153.40;65.60;;;;;;;-0.93;86.91;98833.88;103461;1314;22576;-55
2021/12/10 06:27:57;;;;;;;166.20;67.50;;;;;;;-0.93;86.94;98832.46;103733;1309;22575;-56
2021/12/10 06:30:29;;;;;;;158.50;68.20;;;;;;;-0.92;87.04;98838.17;103552;1310;22555;-56
2021/12/10 06:32:58;;;;;;;176.10;68.10;;;;;;;-0.95;87.00;98843.65;103497;1310;22624;-56
2021/12/10 06:35:29;;;;;;;148.80;62.50;;;;;;;-0.96;87.00;98840.39;103239;1309;22746;-57
2021/12/10 06:37:59;;;;;;;158.60;64.90;;;;;;;-0.97;86.96;98839.32;103626;1314;25401;-59
2021/12/10 06:40:29;;;;;;;155.40;65.40;;;;;;;-0.98;87.07;98843.98;103556;1313;26140;-57
2021/12/10 06:42:58;;;;;;;156.60;65.50;;;;;;;-0.98;87.13;98839.19;103545;1310;24324;-55
2021/12/10 06:45:29;;;;;;;145.90;58.40;;;;;;;-0.98;87.09;98833.73;103692;1309;22580;-55
2021/12/10 06:48:01;;;;;;;158.80;66.00;;;;;;;-1.00;87.04;98829.34;103609;1314;22903;-57
2021/12/10 06:50:32;;;;;;;164.50;66.20;;;;;;;-1.04;87.01;98825.35;103678;1314;25257;-56
2021/12/10 06:53:01;;;;;;;160.30;62.70;;;;;;;-1.07;87.07;98824.98;103692;1310;22783;-58
2021/12/10 06:55:32;;;;;;;154.60;64.80;;;;;;;-1.09;87.01;98822.06;103560;1309;22565;-58
2021/12/10 06:58:01;;;;;;;171.50;67.90;;;;;;;-1.10;87.03;98824.06;103570;1309;22668;-57
2021/12/10 07:00:33;;;;;;;151.90;62.80;;;;;;;-1.14;87.07;98818.98;103552;1317;25356;-58
2021/12/10 07:03:01;;;;;;;156.30;67.20;;;;;;;-1.18;87.11;98821.39;103574;1314;24238;-58
2021/12/10 07:05:30;;;;;;;137.20;57.90;;;;;;;-1.21;87.08;98819.51;103442;1314;25916;-58
2021/12/10 07:07:58;;;;;;;157.80;65.50;;;;;;;-1.23;87.07;98823.12;103287;1315;22596;-56
2021/12/10 07:10:27;;;;;;;159.60;65.30;;;;;;;-1.23;87.22;98828.73;102910;1310;24243;-57
2021/12/10 07:12:55;;;;;;;164.60;67.80;;;;;;;-1.27;87.16;98838.86;103012;1312;24340;-57
2021/12/10 07:15:25;;;;;;;162.40;66.10;;;;;;;-1.27;87.39;98840.67;103259;1309;22621;-56
2021/12/10 07:17:55;;;;;;;155.60;66.70;;;;;;;-1.27;87.35;98844.48;103135;1317;22574;-57
2021/12/10 07:20:24;;;;;;;;;;;;;;;-1.28;87.30;98844.84;103182;1314;23010;-57
2021/12/10 07:22:53;;;;;;;167.50;69.10;;;;;;;-1.28;87.43;98843.43;103057;1314;22640;-57
2021/12/10 07:25:22;;;;;;;171.70;71.60;;;;;;;-1.27;87.36;98842.92;103068;1310;22659;-57
2021/12/10 07:27:51;;;;;;;178.00;70.50;;;;;;;-1.29;87.51;98847.38;103311;1316;22586;-57
2021/12/10 07:30:22;;;;;;;149.80;62.50;;;;;;;-1.27;87.56;98857.16;103288;1310;22668;-54
2021/12/10 07:32:50;;;;;;;164.60;69.90;;;;;;;-1.25;87.61;98861.12;103442;1310;25828;-57
2021/12/10 07:35:20;;;;;;;168.30;70.40;;;;;;;-1.23;87.64;98856.67;103147;1310;22869;-58
2021/12/10 07:37:48;;;;;;;180.40;73.40;;;;;;;-1.21;87.56;98860.05;103178;1314;25551;-58
2021/12/10 07:40:21;;;;;;;170.80;71.40;;;;;;;-1.17;87.70;98862.66;103137;1309;24393;-58
2021/12/10 07:42:50;;;;;;;189.10;77.90;;;;;;;-1.14;87.67;98857.18;103249;1316;25556;-57
2021/12/10 07:45:20;;;;;;;175.70;71.20;;;;;;;-1.10;87.68;98853.95;103024;1310;24438;-58
2021/12/10 07:47:51;;;;;;;154.90;63.80;;;;;;;-1.09;87.55;98854.55;103089;1316;25404;-57
2021/12/10 07:50:23;;;;;;;178.40;71.60;;;;;;;-1.11;87.39;98852.88;103226;1313;22629;-58
2021/12/10 07:52:55;;;;;;;179.00;74.50;;;;;;;-1.09;87.54;98848.91;103202;1317;25535;-58
2021/12/10 07:55:26;;;;;;;189.80;79.40;;;;;;;-1.04;87.64;98844.46;103136;1312;22641;-56
2021/12/10 07:57:53;;;;;;;;;;;;;;;-1.00;87.62;98838.88;103141;1317;22552;-57
2021/12/10 08:00:24;;;;;;;184.00;72.30;;;;;;;-0.98;87.62;98839.43;103086;1314;26803;-57
2021/12/10 08:02:52;;;;;;;184.00;74.70;;;;;;;-0.97;87.66;98833.23;103134;1310;22618;-57
2021/12/10 08:05:22;;;;;;;190.10;76.80;;;;;;;-0.95;87.61;98831.59;103113;1310;22591;-56
2021/12/10 08:07:51;;;;;;;200.20;73.70;;;;;;;-0.90;87.78;98829.05;103224;1314;22606;-57
2021/12/10 08:10:21;;;;;;;188.50;79.20;;;;;;;-0.88;87.71;98824.35;103078;1314;22578;-57
2021/12/10 08:12:49;;;;;;;196.00;79.10;;;;;;;-0.83;87.72;98823.96;103089;1317;23894;-57
2021/12/10 08:15:19;;;;;;;196.60;79.00;;;;;;;-0.79;87.56;98826.75;103191;1313;24597;-56
2021/12/10 08:17:48;;;;;;;200.40;78.10;;;;;;;-0.76;87.74;98833.23;103251;1310;22599;-57
2021/12/10 08:20:20;;;;;;;189.50;77.90;;;;;;;-0.73;87.60;98832.52;103101;1310;24284;-58
2021/12/10 08:22:51;;;;;;;188.80;75.10;;;;;;;-0.70;87.52;98836.59;103208;1314;24231;-56
2021/12/10 08:25:21;;;;;;;183.60;74.40;;;;;;;-0.70;87.37;98832.92;103253;1316;25671;-57
2021/12/10 08:27:50;;;;;;;166.50;70.50;;;;;;;-0.70;87.48;98836.98;103403;1310;25379;-57
2021/12/10 08:30:22;;;;;;;169.10;70.20;;;;;;;-0.67;87.58;98838.54;103153;1310;22613;-57
2021/12/10 08:32:54;;;;;;;165.80;67.80;;;;;;;-0.66;87.53;98838.98;103091;1314;23277;-58
2021/12/10 08:35:29;;;;;;;159.60;69.70;;;;;;;-0.65;87.58;98843.08;103107;1316;22582;-57
2021/12/10 08:38:00;;;;;;;153.80;64.20;;;;;;;-0.62;87.48;98848.23;103307;1316;22648;-57
2021/12/10 08:40:35;;;;;;;169.30;72.00;;;;;;;-0.57;87.61;98849.80;103170;1315;22651;-58
2021/12/10 08:43:05;;;;;;;169.90;70.30;;;;;;;-0.53;87.52;98849.31;103421;1317;27618;-58
2021/12/10 08:45:35;;;;;;;158.10;70.10;;;;;;;-0.50;87.38;98846.93;103253;1317;22745;-58
2021/12/10 08:48:06;;;;;;;159.90;68.00;;;;;;;-0.46;87.42;98842.02;103394;1316;23225;-57
2021/12/10 08:50:37;;;;;;;166.70;69.20;;;;;;;-0.44;87.25;98840.55;103324;1314;22795;-55
2021/12/10 08:53:12;;;;;;;174.70;71.20;;;;;;;-0.39;87.39;98841.58;103397;1314;22558;-57
2021/12/10 08:55:42;;;;;;;164.70;68.70;;;;;;;-0.35;87.38;98836.75;103140;1316;25549;-58
2021/12/10 08:58:11;;;;;;;151.80;67.60;;;;;;;-0.31;87.32;98836.70;103275;1317;22584;-56
2021/12/10 09:00:41;;;;;;;158.10;68.70;;;;;;;-0.26;87.28;98835.20;103468;1317;25647;-58
2021/12/10 09:03:10;;;;;;;159.90;68.20;;;;;;;-0.19;87.13;98831.62;103314;1309;22592;-55
2021/12/10 09:05:38;;;;;;;154.40;65.00;;;;;;;-0.13;87.09;98821.39;103437;1314;24147;-58
2021/12/10 09:08:07;;;;;;;158.40;67.40;;;;;;;-0.06;87.16;98827.89;103225;1315;22793;-58
2021/12/10 09:10:39;;;;;;;149.10;63.40;;;;;;;-0.01;87.00;98826.79;103286;1316;24408;-54
2021/12/10 09:13:13;;;;;;;150.60;65.00;;;;;;;0.04;86.93;98822.97;103461;1317;22582;-54
2021/12/10 09:15:44;;;;;;;152.10;63.20;;;;;;;0.09;86.93;98819.36;103166;1317;24101;-55
2021/12/10 09:18:13;;;;;;;134.10;58.50;;;;;;;0.12;86.66;98820.56;103086;1316;23144;-57
2021/12/10 09:20:46;;;;;;;127.20;54.10;;;;;;;0.17;86.76;98819.71;103295;1316;26974;-57
2021/12/10 09:23:18;;;;;;;133.60;54.30;;;;;;;0.24;86.83;98817.39;103076;1316;22639;-57
2021/12/10 09:25:47;;;;;;;124.70;53.10;;;;;;;0.32;86.96;98825.30;103290;1316;25376;-57
2021/12/10 09:28:16;;;;;;;114.20;50.60;;;;;;;0.38;86.92;98824.47;103387;1316;22707;-57
2021/12/10 09:30:48;;;;;;;119.30;50.50;;;;;;;0.42;86.94;98816.64;103276;1317;25765;-55
2021/12/10 09:33:17;;;;;;;110.50;46.00;;;;;;;0.46;86.85;98819.23;103112;1316;22687;-57
2021/12/10 09:35:47;;;;;;;119.80;49.80;;;;;;;0.47;86.66;98818.20;103061;1316;22590;-57
2021/12/10 09:38:19;;;;;;;117.50;52.80;;;;;;;0.49;86.70;98821.24;103317;1309;22794;-55
2021/12/10 09:40:52;;;;;;;140.60;61.60;;;;;;;0.53;86.81;98823.45;103236;1316;24230;-56
2021/12/10 09:43:22;;;;;;;149.30;67.60;;;;;;;0.60;86.80;98826.92;103067;1310;24330;-57
2021/12/10 09:45:52;;;;;;;148.90;67.20;;;;;;;0.65;86.79;98821.30;103283;1314;22663;-56
2021/12/10 09:48:20;;;;;;;;;;;;;;;0.70;86.75;98820.33;103303;1316;22643;-56
2021/12/10 09:50:55;;;;;;;145.70;63.00;;;;;;;0.72;86.70;98820.27;103113;1315;22600;-57
2021/12/10 09:53:26;;;;;;;139.50;63.30;;;;;;;0.72;86.53;98815.77;103208;1316;24270;-57
2021/12/10 09:55:55;;;;;;;140.90;61.30;;;;;;;0.75;86.49;98816.31;103229;1315;24287;-55
2021/12/10 09:58:25;;;;;;;132.80;59.70;;;;;;;0.80;86.57;98814.24;103237;1317;22616;-58
2021/12/10 10:00:58;;;;;;;138.20;61.10;;;;;;;0.84;86.60;98815.67;103246;1317;24323;-55
2021/12/10 10:03:31;;;;;;;108.20;46.30;;;;;;;0.88;86.55;98819.79;103129;1316;22586;-55
2021/12/10 10:06:00;;;;;;;99.00;43.10;;;;;;;0.88;86.25;98817.25;103097;1315;25409;-55
2021/12/10 10:08:29;;;;;;;89.80;41.40;;;;;;;0.89;86.40;98818.63;103234;1310;25316;-57
2021/12/10 10:11:01;;;;;;;90.80;38.40;;;;;;;0.89;86.28;98811.52;103219;1316;26598;-57
2021/12/10 10:13:34;;;;;;;87.50;37.70;;;;;;;0.89;86.19;98809.33;103162;1315;23029;-57
2021/12/10 10:16:03;;;;;;;83.00;34.00;;;;;;;0.87;86.06;98805.67;103216;1316;24703;-57
2021/12/10 10:18:35;;;;;;;90.40;37.50;;;;;;;0.85;86.06;98799.50;103189;1316;24325;-57
2021/12/10 10:21:07;;;;;;;75.90;33.90;;;;;;;0.86;86.19;98799.98;103248;1316;22751;-56
2021/12/10 10:23:37;;;;;;;83.00;37.90;;;;;;;0.87;86.05;98798.67;103090;1316;25370;-55
2021/12/10 10:26:10;;;;;;;96.80;43.20;;;;;;;0.88;86.09;98799.91;103166;1316;25324;-56
2021/12/10 10:28:39;;;;;;;103.80;45.90;;;;;;;0.92;86.29;98800.34;103153;1316;24221;-57
2021/12/10 10:31:12;;;;;;;101.10;43.90;;;;;;;0.97;86.35;98806.75;103080;1316;24813;-57
2021/12/10 10:33:41;;;;;;;98.30;42.70;;;;;;;1.01;86.42;98794.71;103071;1317;25374;-57
2021/12/10 10:36:19;;;;;;;91.10;41.50;;;;;;;1.06;86.31;98789.97;103131;1316;22585;-58
2021/12/10 10:38:51;;;;;;;101.70;45.50;;;;;;;1.10;86.33;98789.02;103207;1316;22702;-57
2021/12/10 10:41:22;;;;;;;98.40;44.00;;;;;;;1.15;86.29;98789.23;103593;1316;22612;-57
2021/12/10 10:43:52;;;;;;;101.00;41.40;;;;;;;1.18;86.11;98783.48;103522;1316;22654;-58
2021/12/10 10:46:20;;;;;;;94.10;42.00;;;;;;;1.20;86.05;98780.04;103573;1316;22656;-57
2021/12/10 10:48:49;;;;;;;83.20;37.20;;;;;;;1.21;85.99;98781.80;103739;1316;25915;-58
2021/12/10 10:51:25;;;;;;;81.70;35.90;;;;;;;1.23;86.03;98784.38;103470;1316;25930;-56
2021/12/10 10:53:55;;;;;;;80.70;36.50;;;;;;;1.25;86.04;98778.40;103575;1309;22562;-57
2021/12/10 10:56:30;;;;;;;81.10;34.90;;;;;;;1.28;86.04;98778.55;103610;1312;22623;-57
2021/12/10 10:59:04;;;;;;;78.50;34.30;;;;;;;1.30;86.08;98776.27;103605;1313;23128;-58
2021/12/10 11:01:40;;;;;;;72.20;31.20;;;;;;;1.33;86.00;98778.01;103630;1316;24210;-57
2021/12/10 11:04:17;;;;;;;70.60;31.60;;;;;;;1.36;86.15;98776.26;103623;1316;22581;-59
2021/12/10 11:06:49;;;;;;;74.90;31.50;;;;;;;1.42;86.13;98778.23;103553;1317;22884;-58
2021/12/10 11:09:22;;;;;;;102.40;43.00;;;;;;;1.47;86.27;98779.04;103478;1316;22662;-58
2021/12/10 11:11:54;;;;;;;98.70;43.20;;;;;;;1.51;86.28;98770.84;103242;1315;24334;-60
2021/12/10 11:14:24;;;;;;;100.00;48.00;;;;;;;1.55;86.16;98765.91;103361;1310;24221;-59
2021/12/10 11:17:02;;;;;;;99.50;44.40;;;;;;;1.59;86.24;98768.41;103436;1316;25421;-59
2021/12/10 11:19:32;;;;;;;88.60;41.10;;;;;;;1.61;86.04;98770.53;103099;1315;22685;-59
2021/12/10 11:22:03;;;;;;;82.50;37.10;;;;;;;1.62;86.00;98767.88;103292;1317;26614;-57
2021/12/10 11:24:38;;;;;;;93.30;40.20;;;;;;;1.64;86.00;98765.86;103297;1316;24018;-57
2021/12/10 11:27:09;;;;;;;84.60;38.70;;;;;;;1.65;85.96;98762.16;103135;1316;22727;-58